sensor_id;sensor_type;location;lat;lon;timestamp;pressure;altitude;pressure_sealevel;temperature;humidity
45275;BME280;31019;43.780;25.948;2024-02-15T00:01:30;64013.03;;;-143.39;100.00
45275;BME280;31019;43.780;25.948;2024-02-15T00:03:57;64013.03;;;-143.39;100.00
45275;BME280;31019;43.780;25.948;2024-02-15T00:06:24;64013.03;;;-143.39;100.00
45275;BME280;31019;43.780;25.948;2024-02-15T00:08:56;64013.03;;;-143.39;100.00
45275;BME280;31019;43.780;25.948;2024-02-15T00:11:23;64013.03;;;-143.39;100.00
45275;BME280;31019;43.780;25.948;2024-02-15T00:13:50;64013.03;;;-143.39;100.00
45275;BME280;31019;43.780;25.948;2024-02-15T00:16:18;64013.03;;;-143.39;100.00
45275;BME280;31019;43.780;25.948;2024-02-15T00:18:46;64013.03;;;-143.39;100.00
45275;BME280;31019;43.780;25.948;2024-02-15T00:21:13;64013.03;;;-143.39;100.00
45275;BME280;31019;43.780;25.948;2024-02-15T00:23:42;64013.03;;;-143.39;100.00
45275;BME280;31019;43.780;25.948;2024-02-15T00:26:09;64013.03;;;-143.39;100.00
45275;BME280;31019;43.780;25.948;2024-02-15T00:28:37;64013.03;;;-143.39;100.00
45275;BME280;31019;43.780;25.948;2024-02-15T00:31:18;64013.03;;;-143.39;100.00
45275;BME280;31019;43.780;25.948;2024-02-15T00:36:43;64013.03;;;-143.39;100.00
45275;BME280;31019;43.780;25.948;2024-02-15T00:39:32;64013.03;;;-143.39;100.00
45275;BME280;31019;43.780;25.948;2024-02-15T00:42:02;64013.03;;;-143.39;100.00
45275;BME280;31019;43.780;25.948;2024-02-15T00:44:31;64013.03;;;-143.39;100.00
45275;BME280;31019;43.780;25.948;2024-02-15T00:47:03;64013.03;;;-143.39;100.00
45275;BME280;31019;43.780;25.948;2024-02-15T00:49:33;64013.03;;;-143.39;100.00
45275;BME280;31019;43.780;25.948;2024-02-15T00:52:02;64013.03;;;-143.39;100.00
45275;BME280;31019;43.780;25.948;2024-02-15T00:54:29;64013.03;;;-143.39;100.00
45275;BME280;31019;43.780;25.948;2024-02-15T00:56:59;64013.03;;;-143.39;100.00
45275;BME280;31019;43.780;25.948;2024-02-15T00:59:33;64013.03;;;-143.39;100.00
45275;BME280;31019;43.780;25.948;2024-02-15T01:02:01;64013.03;;;-143.39;100.00
45275;BME280;31019;43.780;25.948;2024-02-15T01:04:31;64013.03;;;-143.39;100.00
45275;BME280;31019;43.780;25.948;2024-02-15T01:07:00;64013.03;;;-143.39;100.00
45275;BME280;31019;43.780;25.948;2024-02-15T01:09:29;64013.03;;;-143.39;100.00
45275;BME280;31019;43.780;25.948;2024-02-15T01:11:56;64013.03;;;-143.39;100.00
45275;BME280;31019;43.780;25.948;2024-02-15T01:14:34;64013.03;;;-143.39;100.00
45275;BME280;31019;43.780;25.948;2024-02-15T01:17:16;64013.03;;;-143.39;100.00
45275;BME280;31019;43.780;25.948;2024-02-15T01:19:43;64013.03;;;-143.39;100.00
45275;BME280;31019;43.780;25.948;2024-02-15T01:22:10;64013.03;;;-143.39;100.00
45275;BME280;31019;43.780;25.948;2024-02-15T01:24:39;64013.03;;;-143.39;100.00
45275;BME280;31019;43.780;25.948;2024-02-15T01:27:06;64013.03;;;-143.39;100.00
45275;BME280;31019;43.780;25.948;2024-02-15T01:29:35;64013.03;;;-143.39;100.00
45275;BME280;31019;43.780;25.948;2024-02-15T01:32:02;64013.03;;;-143.39;100.00
45275;BME280;31019;43.780;25.948;2024-02-15T01:34:30;64013.03;;;-143.39;100.00
45275;BME280;31019;43.780;25.948;2024-02-15T01:36:57;64013.03;;;-143.39;100.00
45275;BME280;31019;43.780;25.948;2024-02-15T01:39:24;64013.03;;;-143.39;100.00
45275;BME280;31019;43.780;25.948;2024-02-15T01:41:54;64013.03;;;-143.39;100.00
45275;BME280;31019;43.780;25.948;2024-02-15T01:44:22;64013.03;;;-143.39;100.00
45275;BME280;31019;43.780;25.948;2024-02-15T01:46:51;64013.03;;;-143.39;100.00
45275;BME280;31019;43.780;25.948;2024-02-15T01:49:28;64013.03;;;-143.39;100.00
45275;BME280;31019;43.780;25.948;2024-02-15T01:51:56;64013.03;;;-143.39;100.00
45275;BME280;31019;43.780;25.948;2024-02-15T01:54:24;64013.03;;;-143.39;100.00
45275;BME280;31019;43.780;25.948;2024-02-15T01:56:53;64013.03;;;-143.39;100.00
45275;BME280;31019;43.780;25.948;2024-02-15T01:59:24;64013.03;;;-143.39;100.00
45275;BME280;31019;43.780;25.948;2024-02-15T02:02:00;64013.03;;;-143.39;100.00
45275;BME280;31019;43.780;25.948;2024-02-15T02:04:28;64013.03;;;-143.39;100.00
45275;BME280;31019;43.780;25.948;2024-02-15T02:06:57;64013.03;;;-143.39;100.00
45275;BME280;31019;43.780;25.948;2024-02-15T02:09:29;64013.03;;;-143.39;100.00
45275;BME280;31019;43.780;25.948;2024-02-15T02:12:00;64013.03;;;-143.39;100.00
45275;BME280;31019;43.780;25.948;2024-02-15T02:14:28;64013.03;;;-143.39;100.00
45275;BME280;31019;43.780;25.948;2024-02-15T02:17:13;64013.03;;;-143.39;100.00
45275;BME280;31019;43.780;25.948;2024-02-15T02:19:41;64013.03;;;-143.39;100.00
45275;BME280;31019;43.780;25.948;2024-02-15T02:22:12;64013.03;;;-143.39;100.00
45275;BME280;31019;43.780;25.948;2024-02-15T02:24:53;64013.03;;;-143.39;100.00
45275;BME280;31019;43.780;25.948;2024-02-15T02:27:38;64013.03;;;-143.39;100.00
45275;BME280;31019;43.780;25.948;2024-02-15T02:30:25;64013.03;;;-143.39;100.00
45275;BME280;31019;43.780;25.948;2024-02-15T02:33:00;64013.03;;;-143.39;100.00
45275;BME280;31019;43.780;25.948;2024-02-15T02:35:27;64013.03;;;-143.39;100.00
45275;BME280;31019;43.780;25.948;2024-02-15T02:37:56;64013.03;;;-143.39;100.00
45275;BME280;31019;43.780;25.948;2024-02-15T02:40:44;64013.03;;;-143.39;100.00
45275;BME280;31019;43.780;25.948;2024-02-15T02:43:11;64013.03;;;-143.39;100.00
45275;BME280;31019;43.780;25.948;2024-02-15T02:45:42;64013.03;;;-143.39;100.00
45275;BME280;31019;43.780;25.948;2024-02-15T02:48:11;64013.03;;;-143.39;100.00
45275;BME280;31019;43.780;25.948;2024-02-15T02:51:03;64013.03;;;-143.39;100.00
45275;BME280;31019;43.780;25.948;2024-02-15T02:53:35;64013.03;;;-143.39;100.00
45275;BME280;31019;43.780;25.948;2024-02-15T02:56:04;64013.03;;;-143.39;100.00
45275;BME280;31019;43.780;25.948;2024-02-15T02:58:31;64013.03;;;-143.39;100.00
45275;BME280;31019;43.780;25.948;2024-02-15T03:00:58;64013.03;;;-143.39;100.00
45275;BME280;31019;43.780;25.948;2024-02-15T03:03:26;64013.03;;;-143.39;100.00
45275;BME280;31019;43.780;25.948;2024-02-15T03:06:00;64013.03;;;-143.39;100.00
45275;BME280;31019;43.780;25.948;2024-02-15T03:08:28;64013.03;;;-143.39;100.00
45275;BME280;31019;43.780;25.948;2024-02-15T03:10:57;64013.03;;;-143.39;100.00
45275;BME280;31019;43.780;25.948;2024-02-15T03:13:29;64013.03;;;-143.39;100.00
45275;BME280;31019;43.780;25.948;2024-02-15T03:16:03;64013.03;;;-143.39;100.00
45275;BME280;31019;43.780;25.948;2024-02-15T03:18:32;64013.03;;;-143.39;100.00
45275;BME280;31019;43.780;25.948;2024-02-15T03:21:03;64013.03;;;-143.39;100.00
45275;BME280;31019;43.780;25.948;2024-02-15T03:23:30;64013.03;;;-143.39;100.00
45275;BME280;31019;43.780;25.948;2024-02-15T03:26:10;64013.03;;;-143.39;100.00
45275;BME280;31019;43.780;25.948;2024-02-15T03:28:39;64013.03;;;-143.39;100.00
45275;BME280;31019;43.780;25.948;2024-02-15T03:31:12;64013.03;;;-143.39;100.00
45275;BME280;31019;43.780;25.948;2024-02-15T03:33:42;64013.03;;;-143.39;100.00
45275;BME280;31019;43.780;25.948;2024-02-15T03:36:08;64013.03;;;-143.39;100.00
45275;BME280;31019;43.780;25.948;2024-02-15T03:38:41;64013.03;;;-143.39;100.00
45275;BME280;31019;43.780;25.948;2024-02-15T03:41:11;64013.03;;;-143.39;100.00
45275;BME280;31019;43.780;25.948;2024-02-15T03:43:41;64013.03;;;-143.39;100.00
45275;BME280;31019;43.780;25.948;2024-02-15T03:46:08;64013.03;;;-143.39;100.00
45275;BME280;31019;43.780;25.948;2024-02-15T03:48:37;64013.03;;;-143.39;100.00
45275;BME280;31019;43.780;25.948;2024-02-15T03:51:08;64013.03;;;-143.39;100.00
45275;BME280;31019;43.780;25.948;2024-02-15T03:53:35;64013.03;;;-143.39;100.00
45275;BME280;31019;43.780;25.948;2024-02-15T03:56:04;64013.03;;;-143.39;100.00
45275;BME280;31019;43.780;25.948;2024-02-15T03:58:32;64013.03;;;-143.39;100.00
45275;BME280;31019;43.780;25.948;2024-02-15T04:01:04;64013.03;;;-143.39;100.00
45275;BME280;31019;43.780;25.948;2024-02-15T04:03:39;64013.03;;;-143.39;100.00
45275;BME280;31019;43.780;25.948;2024-02-15T04:06:11;64013.03;;;-143.39;100.00
45275;BME280;31019;43.780;25.948;2024-02-15T04:08:38;64013.03;;;-143.39;100.00
45275;BME280;31019;43.780;25.948;2024-02-15T04:11:05;64013.03;;;-143.39;100.00
45275;BME280;31019;43.780;25.948;2024-02-15T04:13:35;64013.03;;;-143.39;100.00
45275;BME280;31019;43.780;25.948;2024-02-15T04:16:04;64013.03;;;-143.39;100.00
45275;BME280;31019;43.780;25.948;2024-02-15T04:18:34;64013.03;;;-143.39;100.00
45275;BME280;31019;43.780;25.948;2024-02-15T04:21:04;64013.03;;;-143.39;100.00
45275;BME280;31019;43.780;25.948;2024-02-15T04:23:32;64013.03;;;-143.39;100.00
45275;BME280;31019;43.780;25.948;2024-02-15T04:26:09;64013.03;;;-143.39;100.00
45275;BME280;31019;43.780;25.948;2024-02-15T04:28:39;64013.03;;;-143.39;100.00
45275;BME280;31019;43.780;25.948;2024-02-15T04:31:08;64013.03;;;-143.39;100.00
45275;BME280;31019;43.780;25.948;2024-02-15T04:33:35;64013.03;;;-143.39;100.00
45275;BME280;31019;43.780;25.948;2024-02-15T04:36:04;64013.03;;;-143.39;100.00
45275;BME280;31019;43.780;25.948;2024-02-15T04:38:35;64013.03;;;-143.39;100.00
45275;BME280;31019;43.780;25.948;2024-02-15T04:41:02;64013.03;;;-143.39;100.00
45275;BME280;31019;43.780;25.948;2024-02-15T04:43:37;64013.03;;;-143.39;100.00
45275;BME280;31019;43.780;25.948;2024-02-15T04:46:07;64013.03;;;-143.39;100.00
45275;BME280;31019;43.780;25.948;2024-02-15T04:48:35;64013.03;;;-143.39;100.00
45275;BME280;31019;43.780;25.948;2024-02-15T04:52:22;101784.63;;;0.00;100.00
45275;BME280;31019;43.780;25.948;2024-02-15T04:54:50;101788.19;;;0.23;100.00
45275;BME280;31019;43.780;25.948;2024-02-15T04:57:20;101776.94;;;0.34;100.00
45275;BME280;31019;43.780;25.948;2024-02-15T04:59:49;101790.69;;;0.01;100.00
45275;BME280;31019;43.780;25.948;2024-02-15T05:02:16;101790.94;;;0.09;100.00
45275;BME280;31019;43.780;25.948;2024-02-15T05:04:46;101791.91;;;-0.16;100.00
45275;BME280;31019;43.780;25.948;2024-02-15T05:07:13;101789.19;;;-0.15;100.00
45275;BME280;31019;43.780;25.948;2024-02-15T05:09:46;101795.91;;;0.01;100.00
45275;BME280;31019;43.780;25.948;2024-02-15T05:12:21;101804.16;;;-0.30;100.00
45275;BME280;31019;43.780;25.948;2024-02-15T05:14:49;101801.81;;;-0.21;100.00
45275;BME280;31019;43.780;25.948;2024-02-15T05:17:16;101817.44;;;2.42;100.00
45275;BME280;31019;43.780;25.948;2024-02-15T05:19:45;101825.53;;;8.36;100.00
45275;BME280;31019;43.780;25.948;2024-02-15T05:22:18;101822.34;;;7.23;100.00
45275;BME280;31019;43.780;25.948;2024-02-15T05:25:05;101827.81;;;0.41;100.00
45275;BME280;31019;43.780;25.948;2024-02-15T05:27:33;101820.91;;;-0.08;100.00
45275;BME280;31019;43.780;25.948;2024-02-15T05:30:04;101825.97;;;-0.31;100.00
45275;BME280;31019;43.780;25.948;2024-02-15T05:32:33;101828.63;;;-0.43;100.00
45275;BME280;31019;43.780;25.948;2024-02-15T05:35:08;101833.84;;;-0.43;100.00
45275;BME280;31019;43.780;25.948;2024-02-15T05:37:35;101838.31;;;-0.46;100.00
45275;BME280;31019;43.780;25.948;2024-02-15T05:40:02;101842.84;;;-0.99;100.00
45275;BME280;31019;43.780;25.948;2024-02-15T05:42:31;101838.78;;;-0.77;100.00
45275;BME280;31019;43.780;25.948;2024-02-15T05:44:59;101837.31;;;-0.56;100.00
45275;BME280;31019;43.780;25.948;2024-02-15T05:47:41;101842.63;;;-0.44;100.00
45275;BME280;31019;43.780;25.948;2024-02-15T05:50:09;101848.06;;;-0.60;100.00
45275;BME280;31019;43.780;25.948;2024-02-15T05:52:36;101854.44;;;-0.64;100.00
45275;BME280;31019;43.780;25.948;2024-02-15T05:55:04;101850.78;;;-0.62;100.00
45275;BME280;31019;43.780;25.948;2024-02-15T05:57:33;101855.25;;;-0.38;100.00
45275;BME280;31019;43.780;25.948;2024-02-15T06:00:22;101852.84;;;-0.41;100.00
45275;BME280;31019;43.780;25.948;2024-02-15T06:02:54;101865.84;;;-0.16;100.00
45275;BME280;31019;43.780;25.948;2024-02-15T06:05:21;101865.63;;;-0.13;100.00
45275;BME280;31019;43.780;25.948;2024-02-15T06:07:56;101872.91;;;0.08;100.00
45275;BME280;31019;43.780;25.948;2024-02-15T06:10:24;101872.13;;;0.18;100.00
45275;BME280;31019;43.780;25.948;2024-02-15T06:12:55;101864.03;;;0.34;100.00
45275;BME280;31019;43.780;25.948;2024-02-15T06:15:22;101867.50;;;0.70;100.00
45275;BME280;31019;43.780;25.948;2024-02-15T06:17:51;101873.38;;;0.85;100.00
45275;BME280;31019;43.780;25.948;2024-02-15T06:20:18;101867.41;;;1.18;100.00
45275;BME280;31019;43.780;25.948;2024-02-15T06:22:46;101876.81;;;1.43;100.00
45275;BME280;31019;43.780;25.948;2024-02-15T06:25:16;101874.19;;;1.32;100.00
45275;BME280;31019;43.780;25.948;2024-02-15T06:27:46;101872.53;;;1.65;100.00
45275;BME280;31019;43.780;25.948;2024-02-15T06:30:17;101882.88;;;1.89;100.00
45275;BME280;31019;43.780;25.948;2024-02-15T06:33:04;101876.91;;;1.98;100.00
45275;BME280;31019;43.780;25.948;2024-02-15T06:35:48;101880.63;;;2.39;100.00
45275;BME280;31019;43.780;25.948;2024-02-15T06:38:32;101887.72;;;2.27;100.00
45275;BME280;31019;43.780;25.948;2024-02-15T06:41:19;101895.44;;;2.28;100.00
45275;BME280;31019;43.780;25.948;2024-02-15T06:43:46;101892.75;;;2.83;100.00
45275;BME280;31019;43.780;25.948;2024-02-15T06:46:16;101883.31;;;2.81;100.00
45275;BME280;31019;43.780;25.948;2024-02-15T06:48:45;101887.75;;;3.43;100.00
45275;BME280;31019;43.780;25.948;2024-02-15T06:51:12;101874.91;;;3.90;100.00
45275;BME280;31019;43.780;25.948;2024-02-15T06:53:43;101877.69;;;3.88;100.00
45275;BME280;31019;43.780;25.948;2024-02-15T06:56:09;101868.41;;;3.84;100.00
45275;BME280;31019;43.780;25.948;2024-02-15T06:58:37;101871.13;;;4.72;100.00
45275;BME280;31019;43.780;25.948;2024-02-15T07:01:08;101875.56;;;4.32;100.00
45275;BME280;31019;43.780;25.948;2024-02-15T07:03:36;101871.53;;;4.87;100.00
45275;BME280;31019;43.780;25.948;2024-02-15T07:06:05;101874.06;;;4.59;100.00
45275;BME280;31019;43.780;25.948;2024-02-15T07:08:35;101872.75;;;5.21;100.00
45275;BME280;31019;43.780;25.948;2024-02-15T07:11:02;101873.28;;;5.25;100.00
45275;BME280;31019;43.780;25.948;2024-02-15T07:13:32;101856.59;;;5.44;100.00
45275;BME280;31019;43.780;25.948;2024-02-15T07:15:59;101860.13;;;6.53;100.00
45275;BME280;31019;43.780;25.948;2024-02-15T07:18:27;101860.91;;;6.28;100.00
45275;BME280;31019;43.780;25.948;2024-02-15T07:20:56;101853.94;;;6.80;100.00
45275;BME280;31019;43.780;25.948;2024-02-15T07:23:26;101863.88;;;6.86;100.00
45275;BME280;31019;43.780;25.948;2024-02-15T07:25:54;101861.16;;;7.22;100.00
45275;BME280;31019;43.780;25.948;2024-02-15T07:28:34;101855.91;;;7.65;100.00
45275;BME280;31019;43.780;25.948;2024-02-15T07:31:02;101862.41;;;7.36;100.00
45275;BME280;31019;43.780;25.948;2024-02-15T07:33:32;101855.34;;;7.19;100.00
45275;BME280;31019;43.780;25.948;2024-02-15T07:36:05;101853.09;;;8.00;100.00
45275;BME280;31019;43.780;25.948;2024-02-15T07:38:35;101853.97;;;8.34;100.00
45275;BME280;31019;43.780;25.948;2024-02-15T07:41:02;101852.06;;;8.60;100.00
45275;BME280;31019;43.780;25.948;2024-02-15T07:43:32;101854.09;;;8.16;100.00
45275;BME280;31019;43.780;25.948;2024-02-15T07:46:22;101851.13;;;8.19;100.00
45275;BME280;31019;43.780;25.948;2024-02-15T07:48:52;101846.88;;;8.26;100.00
45275;BME280;31019;43.780;25.948;2024-02-15T07:51:22;101843.53;;;8.16;100.00
45275;BME280;31019;43.780;25.948;2024-02-15T07:53:49;101838.91;;;8.34;100.00
45275;BME280;31019;43.780;25.948;2024-02-15T07:56:19;101840.59;;;8.35;100.00
45275;BME280;31019;43.780;25.948;2024-02-15T07:58:49;101839.34;;;7.97;100.00
45275;BME280;31019;43.780;25.948;2024-02-15T08:01:17;101831.34;;;8.88;100.00
45275;BME280;31019;43.780;25.948;2024-02-15T08:03:46;101840.28;;;9.59;100.00
45275;BME280;31019;43.780;25.948;2024-02-15T08:06:16;101843.97;;;9.42;100.00
45275;BME280;31019;43.780;25.948;2024-02-15T08:08:46;101839.41;;;9.98;100.00
45275;BME280;31019;43.780;25.948;2024-02-15T08:11:19;101842.69;;;9.77;100.00
45275;BME280;31019;43.780;25.948;2024-02-15T08:13:47;101842.75;;;9.61;100.00
45275;BME280;31019;43.780;25.948;2024-02-15T08:16:20;101839.84;;;9.39;100.00
45275;BME280;31019;43.780;25.948;2024-02-15T08:18:50;101842.78;;;10.69;100.00
45275;BME280;31019;43.780;25.948;2024-02-15T08:21:25;101832.38;;;10.97;100.00
45275;BME280;31019;43.780;25.948;2024-02-15T08:23:54;101842.34;;;10.81;100.00
45275;BME280;31019;43.780;25.948;2024-02-15T08:26:22;101833.53;;;10.65;100.00
45275;BME280;31019;43.780;25.948;2024-02-15T08:28:52;101820.38;;;11.31;100.00
45275;BME280;31019;43.780;25.948;2024-02-15T08:31:32;101837.91;;;10.96;100.00
45275;BME280;31019;43.780;25.948;2024-02-15T08:34:01;101819.56;;;11.31;100.00
45275;BME280;31019;43.780;25.948;2024-02-15T08:36:31;101826.44;;;11.40;100.00
45275;BME280;31019;43.780;25.948;2024-02-15T08:39:01;101825.94;;;11.96;100.00
45275;BME280;31019;43.780;25.948;2024-02-15T08:41:33;101826.41;;;11.69;100.00
45275;BME280;31019;43.780;25.948;2024-02-15T08:44:00;101822.75;;;12.07;100.00
45275;BME280;31019;43.780;25.948;2024-02-15T08:46:34;101820.69;;;10.69;100.00
45275;BME280;31019;43.780;25.948;2024-02-15T08:49:01;101822.66;;;11.49;100.00
45275;BME280;31019;43.780;25.948;2024-02-15T08:51:31;101816.53;;;11.19;100.00
45275;BME280;31019;43.780;25.948;2024-02-15T08:54:05;101828.16;;;10.88;100.00
45275;BME280;31019;43.780;25.948;2024-02-15T08:56:53;101821.47;;;11.07;100.00
45275;BME280;31019;43.780;25.948;2024-02-15T08:59:27;101833.31;;;10.21;100.00
45275;BME280;31019;43.780;25.948;2024-02-15T09:02:09;101820.94;;;10.97;100.00
45275;BME280;31019;43.780;25.948;2024-02-15T09:04:44;101821.19;;;10.26;100.00
45275;BME280;31019;43.780;25.948;2024-02-15T09:07:22;101823.44;;;9.44;100.00
45275;BME280;31019;43.780;25.948;2024-02-15T09:09:54;101820.19;;;9.96;100.00
45275;BME280;31019;43.780;25.948;2024-02-15T09:12:24;101816.00;;;10.56;100.00
45275;BME280;31019;43.780;25.948;2024-02-15T09:14:51;101816.53;;;10.51;100.00
45275;BME280;31019;43.780;25.948;2024-02-15T09:17:23;101816.09;;;11.45;100.00
45275;BME280;31019;43.780;25.948;2024-02-15T09:19:54;101808.00;;;12.47;100.00
45275;BME280;31019;43.780;25.948;2024-02-15T09:22:21;101809.72;;;11.61;100.00
45275;BME280;31019;43.780;25.948;2024-02-15T09:24:48;101803.72;;;11.88;100.00
45275;BME280;31019;43.780;25.948;2024-02-15T09:27:16;101816.56;;;12.00;100.00
45275;BME280;31019;43.780;25.948;2024-02-15T09:29:43;101805.91;;;12.43;100.00
45275;BME280;31019;43.780;25.948;2024-02-15T09:32:10;101801.06;;;13.09;100.00
45275;BME280;31019;43.780;25.948;2024-02-15T09:34:37;101798.94;;;13.26;100.00
45275;BME280;31019;43.780;25.948;2024-02-15T09:37:04;101802.13;;;14.17;100.00
45275;BME280;31019;43.780;25.948;2024-02-15T09:39:33;101797.50;;;13.71;100.00
45275;BME280;31019;43.780;25.948;2024-02-15T09:42:04;101799.75;;;12.42;100.00
45275;BME280;31019;43.780;25.948;2024-02-15T09:44:38;101794.94;;;14.11;100.00
45275;BME280;31019;43.780;25.948;2024-02-15T09:47:12;101782.56;;;12.73;100.00
45275;BME280;31019;43.780;25.948;2024-02-15T09:49:40;101791.44;;;14.24;100.00
45275;BME280;31019;43.780;25.948;2024-02-15T09:52:10;101787.19;;;12.36;100.00
45275;BME280;31019;43.780;25.948;2024-02-15T09:54:42;101793.56;;;10.73;100.00
45275;BME280;31019;43.780;25.948;2024-02-15T09:57:10;101787.47;;;11.83;100.00
45275;BME280;31019;43.780;25.948;2024-02-15T09:59:39;101780.78;;;10.39;100.00
45275;BME280;31019;43.780;25.948;2024-02-15T10:02:10;101782.97;;;11.84;100.00
45275;BME280;31019;43.780;25.948;2024-02-15T10:04:39;101777.34;;;12.58;100.00
45275;BME280;31019;43.780;25.948;2024-02-15T10:07:08;101786.41;;;10.74;100.00
45275;BME280;31019;43.780;25.948;2024-02-15T10:09:36;101779.50;;;11.32;100.00
45275;BME280;31019;43.780;25.948;2024-02-15T10:12:06;101784.63;;;10.74;100.00
45275;BME280;31019;43.780;25.948;2024-02-15T10:14:35;101783.78;;;9.51;100.00
45275;BME280;31019;43.780;25.948;2024-02-15T10:17:07;101780.88;;;10.46;100.00
45275;BME280;31019;43.780;25.948;2024-02-15T10:19:36;101776.50;;;10.68;100.00
45275;BME280;31019;43.780;25.948;2024-02-15T10:22:07;101776.94;;;12.11;100.00
45275;BME280;31019;43.780;25.948;2024-02-15T10:24:35;101770.78;;;12.60;100.00
45275;BME280;31019;43.780;25.948;2024-02-15T10:27:08;101768.94;;;12.61;100.00
45275;BME280;31019;43.780;25.948;2024-02-15T10:29:36;101765.63;;;13.57;100.00
45275;BME280;31019;43.780;25.948;2024-02-15T10:32:07;101757.94;;;12.99;100.00
45275;BME280;31019;43.780;25.948;2024-02-15T10:34:43;101761.56;;;10.52;100.00
45275;BME280;31019;43.780;25.948;2024-02-15T10:37:12;101762.97;;;12.31;100.00
45275;BME280;31019;43.780;25.948;2024-02-15T10:39:39;101763.31;;;9.68;100.00
45275;BME280;31019;43.780;25.948;2024-02-15T10:42:07;101766.84;;;10.37;100.00
45275;BME280;31019;43.780;25.948;2024-02-15T10:44:36;101761.53;;;10.14;100.00
45275;BME280;31019;43.780;25.948;2024-02-15T10:47:07;101759.41;;;11.44;100.00
45275;BME280;31019;43.780;25.948;2024-02-15T10:49:36;101756.41;;;11.18;100.00
45275;BME280;31019;43.780;25.948;2024-02-15T10:52:05;101751.06;;;11.33;100.00
45275;BME280;31019;43.780;25.948;2024-02-15T10:54:46;101747.94;;;11.44;100.00
45275;BME280;31019;43.780;25.948;2024-02-15T10:57:15;101746.53;;;11.84;100.00
45275;BME280;31019;43.780;25.948;2024-02-15T10:59:53;101737.69;;;12.48;100.00
45275;BME280;31019;43.780;25.948;2024-02-15T11:02:27;101736.28;;;12.24;100.00
45275;BME280;31019;43.780;25.948;2024-02-15T11:05:02;101735.78;;;10.38;100.00
45275;BME280;31019;43.780;25.948;2024-02-15T11:07:31;101746.38;;;12.07;100.00
45275;BME280;31019;43.780;25.948;2024-02-15T11:10:00;101736.56;;;13.34;100.00
45275;BME280;31019;43.780;25.948;2024-02-15T11:12:30;101732.91;;;14.56;100.00
45275;BME280;31019;43.780;25.948;2024-02-15T11:14:57;101732.72;;;12.67;100.00
45275;BME280;31019;43.780;25.948;2024-02-15T11:17:47;101729.91;;;12.47;100.00
45275;BME280;31019;43.780;25.948;2024-02-15T11:20:46;101718.06;;;14.00;100.00
45275;BME280;31019;43.780;25.948;2024-02-15T11:23:24;101724.56;;;12.75;100.00
45275;BME280;31019;43.780;25.948;2024-02-15T11:25:52;101726.28;;;13.92;100.00
45275;BME280;31019;43.780;25.948;2024-02-15T11:28:39;101713.88;;;15.42;100.00
45275;BME280;31019;43.780;25.948;2024-02-15T11:31:14;101716.66;;;13.29;100.00
45275;BME280;31019;43.780;25.948;2024-02-15T11:40:24;101714.75;;;12.82;100.00
45275;BME280;31019;43.780;25.948;2024-02-15T11:42:53;101722.41;;;13.33;100.00
45275;BME280;31019;43.780;25.948;2024-02-15T11:45:21;101709.31;;;12.62;100.00
45275;BME280;31019;43.780;25.948;2024-02-15T11:47:49;101696.50;;;12.44;100.00
45275;BME280;31019;43.780;25.948;2024-02-15T11:50:19;101695.75;;;12.57;100.00
45275;BME280;31019;43.780;25.948;2024-02-15T11:52:50;101699.19;;;11.80;100.00
45275;BME280;31019;43.780;25.948;2024-02-15T11:55:19;101702.63;;;11.95;100.00
45275;BME280;31019;43.780;25.948;2024-02-15T11:57:58;101705.25;;;11.52;100.00
45275;BME280;31019;43.780;25.948;2024-02-15T12:00:31;101699.06;;;11.30;100.00
45275;BME280;31019;43.780;25.948;2024-02-15T12:03:16;101698.00;;;11.46;100.00
45275;BME280;31019;43.780;25.948;2024-02-15T12:06:02;101693.47;;;12.54;100.00
45275;BME280;31019;43.780;25.948;2024-02-15T12:08:55;101693.38;;;11.91;100.00
45275;BME280;31019;43.780;25.948;2024-02-15T12:11:45;101699.47;;;13.52;100.00
45275;BME280;31019;43.780;25.948;2024-02-15T12:14:34;101695.88;;;12.77;100.00
45275;BME280;31019;43.780;25.948;2024-02-15T12:17:23;101697.69;;;13.79;100.00
45275;BME280;31019;43.780;25.948;2024-02-15T12:20:08;101699.09;;;13.07;100.00
45275;BME280;31019;43.780;25.948;2024-02-15T12:22:46;101686.28;;;14.97;100.00
45275;BME280;31019;43.780;25.948;2024-02-15T12:25:15;101697.56;;;13.26;100.00
45275;BME280;31019;43.780;25.948;2024-02-15T12:27:43;101698.09;;;13.69;100.00
45275;BME280;31019;43.780;25.948;2024-02-15T12:30:14;101697.31;;;13.95;100.00
45275;BME280;31019;43.780;25.948;2024-02-15T12:32:45;101696.22;;;13.63;100.00
45275;BME280;31019;43.780;25.948;2024-02-15T12:35:14;101692.16;;;15.25;100.00
45275;BME280;31019;43.780;25.948;2024-02-15T12:37:43;101687.38;;;14.76;100.00
45275;BME280;31019;43.780;25.948;2024-02-15T12:40:17;101686.38;;;14.70;100.00
45275;BME280;31019;43.780;25.948;2024-02-15T12:42:45;101684.91;;;13.00;100.00
45275;BME280;31019;43.780;25.948;2024-02-15T12:45:16;101691.22;;;12.23;100.00
45275;BME280;31019;43.780;25.948;2024-02-15T12:47:47;101692.75;;;10.42;100.00
45275;BME280;31019;43.780;25.948;2024-02-15T12:50:18;101694.53;;;10.80;100.00
45275;BME280;31019;43.780;25.948;2024-02-15T12:52:56;101694.13;;;11.27;100.00
45275;BME280;31019;43.780;25.948;2024-02-15T12:55:31;101687.53;;;12.24;100.00
45275;BME280;31019;43.780;25.948;2024-02-15T12:58:01;101700.44;;;11.99;100.00
45275;BME280;31019;43.780;25.948;2024-02-15T13:00:31;101686.00;;;12.14;100.00